Time;durP1;ratioP1;P1;durP2;ratioP2;P2;SDS_P1;SDS_P2;PMS_P1;PMS_P2;Temp;Humidity;BMP_temperature;BMP_pressure;BME280_temperature;BME280_humidity;BME280_pressure;Samples;Min_cycle;Max_cycle;Signal;HPM_P1;HPM_P2
2023/05/03 00:02:15;;;;;;;;;;;4.80;99.90;;;;;;5090027;27;19959;-76
2023/05/03 00:04:40;;;;;;;;;;;4.70;99.90;;;;;;5096180;27;20007;-76
2023/05/03 00:07:07;;;;;;;;;;;4.50;99.90;;;;;;5090171;27;20552;-76
2023/05/03 00:09:33;;;;;;;;;;;4.40;99.90;;;;;;5092976;27;20372;-76
2023/05/03 00:12:00;;;;;;;;;;;4.10;99.90;;;;;;5089041;27;19933;-76
2023/05/03 00:14:26;;;;;;;;;;;4.10;99.90;;;;;;5094135;27;19954;-76
2023/05/03 00:16:51;;;;;;;;;;;4.10;99.90;;;;;;5108853;27;20436;-76
2023/05/03 00:19:18;;;;;;;;;;;3.90;99.90;;;;;;5112502;27;20493;-76
2023/05/03 00:21:44;;;;;;;;;;;4.00;99.90;;;;;;5107484;27;20026;-76
2023/05/03 00:24:10;;;;;;;;;;;3.80;99.90;;;;;;5105814;27;19982;-76
2023/05/03 00:26:36;;;;;;;;;;;3.60;99.90;;;;;;5109995;27;19955;-76
2023/05/03 00:29:01;;;;;;;;;;;3.60;99.90;;;;;;5091752;27;19939;-76
2023/05/03 00:31:27;;;;;;;;;;;3.50;99.90;;;;;;5111016;27;20394;-76
2023/05/03 00:33:52;;;;;;;;;;;3.60;99.90;;;;;;5093066;27;19923;-76
2023/05/03 00:36:18;;;;;;;;;;;3.80;99.90;;;;;;5090871;27;19934;-76
2023/05/03 00:38:44;;;;;;;;;;;3.60;99.90;;;;;;5111633;27;19931;-76
2023/05/03 00:41:10;;;;;;;;;;;3.60;99.90;;;;;;5110676;27;19943;-76
2023/05/03 00:43:36;;;;;;;;;;;3.70;99.90;;;;;;5090359;27;19931;-76
2023/05/03 00:46:05;;;;;;;;;;;3.80;99.90;;;;;;5110274;27;19934;-76
2023/05/03 00:48:30;;;;;;;;;;;3.80;99.90;;;;;;5113270;27;19931;-75
2023/05/03 00:50:57;;;;;;;;;;;3.70;99.90;;;;;;5111873;27;20444;-76
2023/05/03 00:53:22;;;;;;;;;;;3.80;99.90;;;;;;5108871;27;19939;-76
2023/05/03 00:55:50;;;;;;;;;;;3.90;99.90;;;;;;5091810;27;19927;-75
2023/05/03 00:58:16;;;;;;;;;;;3.90;99.90;;;;;;5091389;27;19952;-76
2023/05/03 01:00:42;;;;;;;;;;;4.00;99.90;;;;;;5105373;27;20703;-76
2023/05/03 01:03:07;;;;;;;;;;;3.80;99.90;;;;;;5110097;27;19938;-76
2023/05/03 01:05:40;;;;;;;;;;;4.20;99.90;;;;;;5110726;27;20627;-76
2023/05/03 01:08:26;;;;;;;;;;;4.10;99.90;;;;;;5111422;27;19980;-76
2023/05/03 01:11:00;;;;;;;;;;;4.20;99.90;;;;;;5109377;27;19928;-76
2023/05/03 01:13:44;;;;;;;;;;;4.30;99.90;;;;;;5101522;27;19923;-76
2023/05/03 01:16:17;;;;;;;;;;;4.30;99.90;;;;;;5108995;27;19927;-76
2023/05/03 01:18:47;;;;;;;;;;;4.10;99.90;;;;;;5111532;27;19932;-76
2023/05/03 01:21:15;;;;;;;;;;;3.90;99.90;;;;;;5111301;27;22006;-76
2023/05/03 01:23:40;;;;;;;;;;;3.70;99.90;;;;;;5093108;27;20417;-76
2023/05/03 01:26:26;;;;;;;;;;;3.50;99.90;;;;;;5109526;27;19923;-76
2023/05/03 01:28:52;;;;;;;;;;;3.40;99.90;;;;;;5111997;27;19927;-75
2023/05/03 01:31:21;;;;;;;;;;;3.40;99.90;;;;;;5111399;27;20817;-75
2023/05/03 01:33:51;;;;;;;;;;;3.40;99.90;;;;;;5107146;27;20401;-76
2023/05/03 01:36:20;;;;;;;;;;;3.60;99.90;;;;;;5107126;27;20364;-76
2023/05/03 01:38:46;;;;;;;;;;;3.50;99.90;;;;;;5091777;27;19942;-76
2023/05/03 01:41:12;;;;;;;;;;;3.60;99.90;;;;;;5111122;27;20339;-76
2023/05/03 01:43:39;;;;;;;;;;;3.60;99.90;;;;;;5110963;27;20033;-76
2023/05/03 01:46:04;;;;;;;;;;;3.50;99.90;;;;;;5109514;27;19931;-75
2023/05/03 01:48:30;;;;;;;;;;;3.30;99.90;;;;;;5110481;27;19931;-76
2023/05/03 01:50:55;;;;;;;;;;;3.30;99.90;;;;;;5111593;27;20403;-76
2023/05/03 01:53:21;;;;;;;;;;;3.10;99.90;;;;;;5088726;27;20386;-75
2023/05/03 01:55:46;;;;;;;;;;;3.10;99.90;;;;;;5109617;27;19963;-76
2023/05/03 01:58:12;;;;;;;;;;;3.10;99.90;;;;;;5112418;27;20281;-75
2023/05/03 02:00:38;;;;;;;;;;;3.10;99.90;;;;;;5113080;27;20582;-76
2023/05/03 02:03:03;;;;;;;;;;;3.10;99.90;;;;;;5108932;27;19959;-75
2023/05/03 02:05:29;;;;;;;;;;;3.00;99.90;;;;;;5112578;27;20703;-76
2023/05/03 02:07:54;;;;;;;;;;;3.00;99.90;;;;;;5117770;27;19959;-76
2023/05/03 02:10:20;;;;;;;;;;;2.80;99.90;;;;;;5120623;27;19927;-75
2023/05/03 02:12:45;;;;;;;;;;;2.90;99.90;;;;;;5113072;27;19950;-75
2023/05/03 02:15:11;;;;;;;;;;;3.10;99.90;;;;;;5096569;27;20816;-75
2023/05/03 02:17:37;;;;;;;;;;;3.10;99.90;;;;;;5118777;27;19966;-75
2023/05/03 02:20:08;;;;;;;;;;;2.90;99.90;;;;;;5120796;27;19927;-75
2023/05/03 02:22:34;;;;;;;;;;;3.00;99.90;;;;;;5112926;27;20410;-76
2023/05/03 02:25:00;;;;;;;;;;;2.90;99.90;;;;;;5120856;27;20010;-75
2023/05/03 02:27:25;;;;;;;;;;;2.80;99.90;;;;;;5117095;27;19970;-76
2023/05/03 02:29:51;;;;;;;;;;;2.60;99.90;;;;;;5119907;27;19930;-76
2023/05/03 02:32:17;;;;;;;;;;;2.40;99.90;;;;;;5098130;27;20003;-75
2023/05/03 02:34:46;;;;;;;;;;;2.60;99.90;;;;;;5101112;27;19977;-76
2023/05/03 02:37:11;;;;;;;;;;;2.50;99.90;;;;;;5117622;27;20043;-75
2023/05/03 02:39:37;;;;;;;;;;;2.60;99.90;;;;;;5115647;27;20013;-75
2023/05/03 02:42:02;;;;;;;;;;;2.60;99.90;;;;;;5113833;27;19927;-75
2023/05/03 02:44:28;;;;;;;;;;;2.70;99.90;;;;;;5118206;27;20344;-76
2023/05/03 02:46:53;;;;;;;;;;;2.60;99.90;;;;;;5116282;27;19927;-76
2023/05/03 02:49:19;;;;;;;;;;;2.60;99.90;;;;;;5115681;27;19927;-76
2023/05/03 02:51:45;;;;;;;;;;;2.70;99.90;;;;;;5114517;27;20022;-75
2023/05/03 02:54:11;;;;;;;;;;;2.60;99.90;;;;;;5102483;27;19970;-75
2023/05/03 02:56:37;;;;;;;;;;;2.20;99.90;;;;;;5104672;27;20416;-75
2023/05/03 02:59:02;;;;;;;;;;;2.20;99.90;;;;;;5118209;27;19972;-75
2023/05/03 03:01:28;;;;;;;;;;;2.20;99.90;;;;;;5117569;27;19934;-75
2023/05/03 03:03:54;;;;;;;;;;;2.50;99.90;;;;;;5113947;27;20503;-75
2023/05/03 03:06:20;;;;;;;;;;;2.40;99.90;;;;;;5098889;27;20031;-75
2023/05/03 03:08:45;;;;;;;;;;;2.50;99.90;;;;;;5087900;27;19963;-75
2023/05/03 03:11:11;;;;;;;;;;;2.50;99.90;;;;;;5109578;27;20296;-75
2023/05/03 03:13:38;;;;;;;;;;;2.70;99.90;;;;;;5097063;28;20034;-76
2023/05/03 03:16:07;;;;;;;;;;;2.30;99.90;;;;;;5117029;27;20304;-76
2023/05/03 03:18:33;;;;;;;;;;;2.40;99.90;;;;;;5099321;27;19984;-75
2023/05/03 03:21:00;;;;;;;;;;;2.40;99.90;;;;;;5101810;27;19924;-75
2023/05/03 03:23:25;;;;;;;;;;;2.60;99.90;;;;;;5116479;27;20018;-75
2023/05/03 03:25:51;;;;;;;;;;;2.50;99.90;;;;;;5111808;27;20034;-75
2023/05/03 03:28:17;;;;;;;;;;;2.60;99.90;;;;;;5116348;28;19927;-75
2023/05/03 03:30:43;;;;;;;;;;;2.50;99.90;;;;;;5116469;27;19927;-75
2023/05/03 03:33:08;;;;;;;;;;;2.40;99.90;;;;;;5091302;28;19932;-76
2023/05/03 03:35:35;;;;;;;;;;;2.30;99.90;;;;;;5112402;28;19932;-75
2023/05/03 03:38:00;;;;;;;;;;;2.10;99.90;;;;;;5115873;28;20398;-75
2023/05/03 03:40:26;;;;;;;;;;;2.10;99.90;;;;;;5113185;27;19927;-75
2023/05/03 03:42:51;;;;;;;;;;;2.10;99.90;;;;;;5107888;28;20430;-76
2023/05/03 03:45:17;;;;;;;;;;;2.00;99.90;;;;;;5101636;28;19932;-75
2023/05/03 03:47:43;;;;;;;;;;;2.10;99.90;;;;;;5115378;27;20018;-75
2023/05/03 03:50:09;;;;;;;;;;;2.30;99.90;;;;;;5111389;27;20000;-75
2023/05/03 03:52:34;;;;;;;;;;;2.20;99.90;;;;;;5119329;27;19935;-75
2023/05/03 03:55:00;;;;;;;;;;;2.30;99.90;;;;;;5118966;27;19927;-75
2023/05/03 03:57:28;;;;;;;;;;;2.40;99.90;;;;;;5119063;28;19928;-75
2023/05/03 03:59:55;;;;;;;;;;;2.30;99.90;;;;;;5119151;27;19923;-75
2023/05/03 04:02:20;;;;;;;;;;;2.40;99.90;;;;;;5111578;28;19934;-76
2023/05/03 04:04:46;;;;;;;;;;;2.40;99.90;;;;;;5098471;28;19928;-75
2023/05/03 04:07:11;;;;;;;;;;;2.50;99.90;;;;;;5114102;27;20014;-75
2023/05/03 04:09:37;;;;;;;;;;;2.60;99.90;;;;;;5120405;27;19924;-76
2023/05/03 04:12:03;;;;;;;;;;;2.50;99.90;;;;;;5098416;28;19954;-75
2023/05/03 04:14:28;;;;;;;;;;;2.60;99.90;;;;;;5100844;28;20006;-75
2023/05/03 04:16:54;;;;;;;;;;;2.80;99.90;;;;;;5120532;28;19928;-75
2023/05/03 04:19:21;;;;;;;;;;;2.70;99.90;;;;;;5117605;27;19934;-75
2023/05/03 04:21:47;;;;;;;;;;;2.60;99.90;;;;;;5116776;28;20437;-75
2023/05/03 04:24:16;;;;;;;;;;;2.90;99.90;;;;;;5098440;28;19927;-75
2023/05/03 04:26:42;;;;;;;;;;;2.70;99.90;;;;;;5116178;27;19932;-75
2023/05/03 04:29:09;;;;;;;;;;;2.70;99.90;;;;;;5120293;27;19967;-75
2023/05/03 04:31:34;;;;;;;;;;;2.80;99.90;;;;;;5118302;27;19927;-75
2023/05/03 04:34:00;;;;;;;;;;;2.70;99.90;;;;;;5120162;27;19924;-75
2023/05/03 04:36:28;;;;;;;;;;;2.60;99.90;;;;;;5122566;27;19924;-75
2023/05/03 04:38:54;;;;;;;;;;;2.80;99.90;;;;;;5101296;27;19931;-75
2023/05/03 04:41:20;;;;;;;;;;;2.80;99.90;;;;;;5120873;27;19939;-75
2023/05/03 04:43:46;;;;;;;;;;;3.00;99.90;;;;;;5084875;27;20265;-75
2023/05/03 04:46:11;;;;;;;;;;;3.00;99.90;;;;;;5117029;27;19950;-75
2023/05/03 04:48:37;;;;;;;;;;;3.30;99.90;;;;;;5118952;27;20291;-75
2023/05/03 04:51:02;;;;;;;;;;;4.30;99.90;;;;;;5119610;27;20287;-76
2023/05/03 04:53:28;;;;;;;;;;;3.80;99.90;;;;;;5100217;27;20021;-75
2023/05/03 04:55:54;;;;;;;;;;;3.90;99.90;;;;;;5120896;27;20384;-75
2023/05/03 04:58:19;;;;;;;;;;;3.80;99.90;;;;;;5121562;27;19924;-75
2023/05/03 05:00:45;;;;;;;;;;;3.70;99.90;;;;;;5102136;27;20284;-75
2023/05/03 05:03:10;;;;;;;;;;;3.70;99.90;;;;;;5117164;27;19947;-75
2023/05/03 05:05:36;;;;;;;;;;;3.70;99.90;;;;;;5115706;27;19923;-76
2023/05/03 05:08:01;;;;;;;;;;;3.90;99.90;;;;;;5118828;27;19950;-76
2023/05/03 05:10:27;;;;;;;;;;;3.90;99.90;;;;;;5101060;27;20010;-76
2023/05/03 05:12:53;;;;;;;;;;;3.80;99.90;;;;;;5101074;27;19935;-75
2023/05/03 05:15:18;;;;;;;;;;;3.90;99.90;;;;;;5121763;27;19924;-76
2023/05/03 05:17:44;;;;;;;;;;;3.80;99.90;;;;;;5117740;27;20073;-75
2023/05/03 05:20:12;;;;;;;;;;;3.90;99.90;;;;;;5102906;27;20406;-76
2023/05/03 05:22:38;;;;;;;;;;;4.20;99.90;;;;;;5101816;27;19924;-76
2023/05/03 05:25:04;;;;;;;;;;;4.30;99.90;;;;;;5121793;27;19927;-76
2023/05/03 05:27:30;;;;;;;;;;;4.20;99.90;;;;;;5119101;27;20372;-75
2023/05/03 05:29:56;;;;;;;;;;;4.40;99.90;;;;;;5122638;27;19924;-75
2023/05/03 05:32:21;;;;;;;;;;;4.50;99.90;;;;;;5114871;27;19939;-76
2023/05/03 05:34:51;;;;;;;;;;;4.80;99.90;;;;;;5118217;27;20098;-75
2023/05/03 05:37:17;;;;;;;;;;;4.80;99.90;;;;;;5117108;27;20112;-76
2023/05/03 05:39:43;;;;;;;;;;;5.00;99.90;;;;;;5121598;27;19928;-75
2023/05/03 05:42:09;;;;;;;;;;;5.00;99.90;;;;;;5117301;27;20392;-76
2023/05/03 05:44:34;;;;;;;;;;;5.10;99.90;;;;;;5119346;27;19931;-76
2023/05/03 05:47:00;;;;;;;;;;;5.20;99.90;;;;;;5098835;27;19932;-76
2023/05/03 05:49:26;;;;;;;;;;;5.30;99.90;;;;;;5119144;27;20051;-76
2023/05/03 05:51:51;;;;;;;;;;;5.40;99.90;;;;;;5094171;27;19934;-76
2023/05/03 05:54:17;;;;;;;;;;;5.50;99.90;;;;;;5119450;27;20159;-75
2023/05/03 05:56:42;;;;;;;;;;;5.60;99.90;;;;;;5083334;27;19931;-76
2023/05/03 05:59:08;;;;;;;;;;;5.70;99.90;;;;;;5114332;27;19931;-76
2023/05/03 06:01:33;;;;;;;;;;;5.90;99.90;;;;;;5116426;27;20188;-76
2023/05/03 06:03:59;;;;;;;;;;;6.00;99.90;;;;;;5121898;27;20527;-76
2023/05/03 06:06:25;;;;;;;;;;;6.10;99.90;;;;;;5102593;27;19980;-76
2023/05/03 06:08:50;;;;;;;;;;;6.20;99.90;;;;;;5118183;27;19934;-76
2023/05/03 06:11:17;;;;;;;;;;;6.10;99.90;;;;;;5116452;27;19928;-76
2023/05/03 06:13:42;;;;;;;;;;;6.20;99.90;;;;;;5120439;27;19924;-76
2023/05/03 06:16:08;;;;;;;;;;;6.60;99.90;;;;;;5118808;27;19924;-76
2023/05/03 06:18:33;;;;;;;;;;;6.80;99.90;;;;;;5116818;27;19959;-77
2023/05/03 06:20:59;;;;;;;;;;;7.10;99.90;;;;;;5097247;27;19927;-76
2023/05/03 06:23:26;;;;;;;;;;;7.20;99.90;;;;;;5117793;27;19924;-76
2023/05/03 06:25:52;;;;;;;;;;;7.40;99.90;;;;;;5116120;27;19927;-76
2023/05/03 06:28:18;;;;;;;;;;;7.50;99.90;;;;;;5119155;27;19927;-76
2023/05/03 06:30:50;;;;;;;;;;;7.70;99.90;;;;;;5120097;27;19980;-77
2023/05/03 06:33:16;;;;;;;;;;;7.80;99.90;;;;;;5100118;27;20435;-77
2023/05/03 06:35:41;;;;;;;;;;;7.90;99.90;;;;;;5095799;27;19934;-76
2023/05/03 06:38:07;;;;;;;;;;;8.00;99.90;;;;;;5121034;27;19971;-76
2023/05/03 06:40:33;;;;;;;;;;;8.10;99.90;;;;;;5099527;27;19970;-76
2023/05/03 06:42:59;;;;;;;;;;;8.30;99.90;;;;;;5118279;27;20018;-75
2023/05/03 06:45:25;;;;;;;;;;;8.30;99.90;;;;;;5120884;27;20594;-76
2023/05/03 06:47:50;;;;;;;;;;;8.50;99.90;;;;;;5102061;27;19927;-77
2023/05/03 06:50:16;;;;;;;;;;;8.70;99.90;;;;;;5099537;27;19923;-76
2023/05/03 06:52:42;;;;;;;;;;;8.80;99.90;;;;;;5117815;27;20583;-77
2023/05/03 06:55:08;;;;;;;;;;;9.00;99.90;;;;;;5114786;27;20014;-76
2023/05/03 06:57:33;;;;;;;;;;;9.00;99.90;;;;;;5117541;27;19999;-77
2023/05/03 06:59:59;;;;;;;;;;;9.30;99.90;;;;;;5117086;27;20575;-76
2023/05/03 07:02:25;;;;;;;;;;;9.50;99.90;;;;;;5099275;27;20345;-77
2023/05/03 07:04:51;;;;;;;;;;;9.50;99.90;;;;;;5117530;27;19927;-77
2023/05/03 07:07:16;;;;;;;;;;;9.80;99.90;;;;;;5119982;27;20418;-77
2023/05/03 07:09:42;;;;;;;;;;;9.70;99.90;;;;;;5101154;27;20014;-76
2023/05/03 07:12:08;;;;;;;;;;;9.90;99.90;;;;;;5101331;27;19927;-76
2023/05/03 07:14:33;;;;;;;;;;;9.70;99.90;;;;;;5119118;27;20453;-76
2023/05/03 07:16:59;;;;;;;;;;;10.30;99.90;;;;;;5117563;27;19928;-76
2023/05/03 07:19:24;;;;;;;;;;;10.70;99.90;;;;;;5117210;27;19983;-76
2023/05/03 07:21:51;;;;;;;;;;;10.40;99.90;;;;;;5100966;27;19939;-76
2023/05/03 07:24:16;;;;;;;;;;;10.80;99.90;;;;;;5116293;27;19935;-76
2023/05/03 07:26:42;;;;;;;;;;;10.60;99.90;;;;;;5115560;27;19934;-76
2023/05/03 07:29:07;;;;;;;;;;;11.10;99.90;;;;;;5115068;27;20429;-76
2023/05/03 07:31:33;;;;;;;;;;;11.70;99.90;;;;;;5113662;27;19973;-77
2023/05/03 07:33:58;;;;;;;;;;;11.50;99.90;;;;;;5117528;28;20051;-77
2023/05/03 07:36:25;;;;;;;;;;;10.90;99.90;;;;;;5113546;28;19927;-77
2023/05/03 07:38:50;;;;;;;;;;;10.40;99.90;;;;;;5116706;28;19975;-77
2023/05/03 07:41:16;;;;;;;;;;;10.90;99.90;;;;;;5115148;28;20430;-77
2023/05/03 07:43:41;;;;;;;;;;;10.20;99.90;;;;;;5113675;28;19927;-77
2023/05/03 07:46:07;;;;;;;;;;;10.60;99.90;;;;;;5097915;28;20512;-77
2023/05/03 07:48:33;;;;;;;;;;;10.30;99.90;;;;;;5119236;28;19934;-78
2023/05/03 07:50:58;;;;;;;;;;;10.70;99.90;;;;;;5097520;28;20014;-77
2023/05/03 07:53:24;;;;;;;;;;;11.00;99.90;;;;;;5092575;28;19976;-77
2023/05/03 07:55:52;;;;;;;;;;;11.70;99.90;;;;;;5094308;28;20054;-77
2023/05/03 07:58:18;;;;;;;;;;;10.90;99.90;;;;;;5109449;28;20296;-77
2023/05/03 08:00:43;;;;;;;;;;;10.50;99.90;;;;;;5104734;27;19937;-77
2023/05/03 08:03:09;;;;;;;;;;;11.60;99.90;;;;;;5084810;27;20012;-77
2023/05/03 08:05:35;;;;;;;;;;;11.90;99.90;;;;;;5095329;27;19988;-76
2023/05/03 08:08:02;;;;;;;;;;;10.80;99.90;;;;;;5091671;27;19923;-76
2023/05/03 08:10:28;;;;;;;;;;;11.20;99.90;;;;;;5099267;27;20410;-77
2023/05/03 08:12:54;;;;;;;;;;;11.10;99.90;;;;;;5093798;27;19928;-77
2023/05/03 08:15:19;;;;;;;;;;;10.70;99.90;;;;;;5118285;27;19928;-77
2023/05/03 08:17:45;;;;;;;;;;;10.30;99.90;;;;;;5118957;27;20398;-77
2023/05/03 08:20:11;;;;;;;;;;;10.30;99.90;;;;;;5120495;27;19965;-76
2023/05/03 08:22:37;;;;;;;;;;;10.30;99.90;;;;;;5098674;27;19927;-77
2023/05/03 08:25:06;;;;;;;;;;;10.80;99.90;;;;;;5122309;27;19934;-77
2023/05/03 08:27:32;;;;;;;;;;;10.60;99.90;;;;;;5115555;27;20328;-77
2023/05/03 08:29:58;;;;;;;;;;;10.60;99.90;;;;;;5121520;27;19973;-78
2023/05/03 08:32:24;;;;;;;;;;;10.60;99.90;;;;;;5100822;27;19938;-77
2023/05/03 08:34:51;;;;;;;;;;;10.70;99.90;;;;;;5099500;27;19927;-77
2023/05/03 08:37:16;;;;;;;;;;;11.10;99.90;;;;;;5098704;27;19980;-78
2023/05/03 08:39:42;;;;;;;;;;;11.50;99.90;;;;;;5090532;27;19924;-78
2023/05/03 08:42:08;;;;;;;;;;;10.70;99.90;;;;;;5110075;27;20399;-77
2023/05/03 08:44:37;;;;;;;;;;;10.50;99.90;;;;;;5110481;27;19965;-77
2023/05/03 08:47:04;;;;;;;;;;;10.50;99.90;;;;;;5113022;27;19931;-77
2023/05/03 08:49:30;;;;;;;;;;;10.60;99.90;;;;;;5099703;27;20588;-77
2023/05/03 08:51:55;;;;;;;;;;;11.10;99.90;;;;;;5119661;27;19930;-77
2023/05/03 08:54:23;;;;;;;;;;;11.30;99.90;;;;;;5120186;27;19928;-76
2023/05/03 08:56:48;;;;;;;;;;;11.60;99.90;;;;;;5115378;27;20018;-76
2023/05/03 08:59:16;;;;;;;;;;;11.60;99.90;;;;;;5099604;27;20042;-77
2023/05/03 09:01:42;;;;;;;;;;;11.80;99.90;;;;;;5094612;27;19927;-77
2023/05/03 09:04:08;;;;;;;;;;;12.50;99.90;;;;;;5119163;27;20392;-77
2023/05/03 09:06:34;;;;;;;;;;;12.40;99.90;;;;;;5114002;27;20453;-77
2023/05/03 09:09:00;;;;;;;;;;;13.70;99.90;;;;;;5117042;27;19927;-77
2023/05/03 09:11:29;;;;;;;;;;;14.30;99.90;;;;;;5118797;27;20039;-77
2023/05/03 09:14:10;;;;;;;;;;;13.70;99.90;;;;;;5117372;27;19976;-77
2023/05/03 09:16:37;;;;;;;;;;;13.50;99.90;;;;;;5080604;27;20786;-77
2023/05/03 09:19:03;;;;;;;;;;;12.40;99.90;;;;;;5108393;27;19978;-77
2023/05/03 09:21:32;;;;;;;;;;;11.80;99.90;;;;;;5107349;27;19924;-77
2023/05/03 09:23:57;;;;;;;;;;;12.20;99.90;;;;;;5117272;27;20087;-77
2023/05/03 09:26:27;;;;;;;;;;;11.10;99.90;;;;;;5091997;27;19996;-76
2023/05/03 09:28:53;;;;;;;;;;;12.20;99.90;;;;;;5117023;27;19935;-77
2023/05/03 09:31:18;;;;;;;;;;;12.70;99.90;;;;;;5115558;27;19927;-77
2023/05/03 09:33:44;;;;;;;;;;;12.30;99.90;;;;;;5118255;27;19954;-77
2023/05/03 09:36:10;;;;;;;;;;;12.20;99.90;;;;;;5117091;27;19928;-77
2023/05/03 09:38:36;;;;;;;;;;;12.40;99.90;;;;;;5100931;27;19934;-76
2023/05/03 09:41:02;;;;;;;;;;;12.10;99.90;;;;;;5113700;27;20330;-77
2023/05/03 09:43:28;;;;;;;;;;;11.90;99.90;;;;;;5119809;27;19934;-76
2023/05/03 09:46:06;;;;;;;;;;;13.00;99.90;;;;;;5100939;27;19927;-77
2023/05/03 09:48:32;;;;;;;;;;;12.90;99.90;;;;;;5121965;27;20010;-76
2023/05/03 09:50:57;;;;;;;;;;;13.20;99.90;;;;;;5120548;27;20023;-76
2023/05/03 09:53:23;;;;;;;;;;;13.50;99.90;;;;;;5119624;27;19927;-76
2023/05/03 09:55:49;;;;;;;;;;;13.70;99.90;;;;;;5120183;27;19934;-78
2023/05/03 09:58:17;;;;;;;;;;;13.40;99.90;;;;;;5101292;27;19987;-77
2023/05/03 10:00:45;;;;;;;;;;;12.90;99.90;;;;;;5122066;27;20380;-77
2023/05/03 10:03:11;;;;;;;;;;;12.90;99.90;;;;;;5118922;27;19970;-77
2023/05/03 10:05:47;;;;;;;;;;;12.50;99.90;;;;;;5124658;27;19939;-77
2023/05/03 10:08:18;;;;;;;;;;;12.00;99.90;;;;;;5098111;27;19930;-77
2023/05/03 10:10:44;;;;;;;;;;;12.20;99.90;;;;;;5118868;27;19934;-77
2023/05/03 10:13:11;;;;;;;;;;;12.40;99.90;;;;;;5099203;27;19927;-78
2023/05/03 10:15:38;;;;;;;;;;;12.20;99.90;;;;;;5120002;27;19927;-77
2023/05/03 10:18:06;;;;;;;;;;;13.10;99.90;;;;;;5120555;27;19984;-77
2023/05/03 10:20:35;;;;;;;;;;;13.00;99.90;;;;;;5119811;27;19928;-77
2023/05/03 10:23:08;;;;;;;;;;;13.70;99.90;;;;;;5095346;27;20533;-77
2023/05/03 10:25:34;;;;;;;;;;;14.10;99.90;;;;;;5116708;27;19928;-77
2023/05/03 10:28:00;;;;;;;;;;;12.80;99.90;;;;;;5119946;27;20510;-77
2023/05/03 10:30:31;;;;;;;;;;;13.30;99.90;;;;;;5121751;27;19935;-76
2023/05/03 10:32:57;;;;;;;;;;;13.60;99.90;;;;;;5100903;27;20010;-77
2023/05/03 10:35:27;;;;;;;;;;;12.70;99.90;;;;;;5120041;27;19928;-77
2023/05/03 10:37:53;;;;;;;;;;;13.10;99.90;;;;;;5117484;27;19923;-76
2023/05/03 10:40:20;;;;;;;;;;;13.70;99.90;;;;;;5119066;27;20518;-77
2023/05/03 10:42:50;;;;;;;;;;;14.40;99.90;;;;;;5117571;27;19929;-77
2023/05/03 10:45:35;;;;;;;;;;;14.60;99.90;;;;;;5119367;27;19927;-76
2023/05/03 10:48:10;;;;;;;;;;;14.20;99.90;;;;;;5116020;27;19927;-76
2023/05/03 10:50:37;;;;;;;;;;;14.60;99.90;;;;;;5120290;27;20292;-76
2023/05/03 10:53:02;;;;;;;;;;;14.80;99.90;;;;;;5116720;27;19930;-76
2023/05/03 10:55:28;;;;;;;;;;;14.70;99.90;;;;;;5091449;27;19931;-77
2023/05/03 10:57:55;;;;;;;;;;;14.20;99.90;;;;;;5111893;27;20345;-77
2023/05/03 11:00:21;;;;;;;;;;;13.80;99.90;;;;;;5114148;27;19927;-78
2023/05/03 11:03:05;;;;;;;;;;;15.10;99.90;;;;;;5116248;27;19923;-77
2023/05/03 11:05:32;;;;;;;;;;;14.50;99.90;;;;;;5114049;27;19952;-78
2023/05/03 11:08:11;;;;;;;;;;;14.90;99.90;;;;;;5094721;27;19929;-78
2023/05/03 11:10:37;;;;;;;;;;;14.60;99.90;;;;;;5097168;27;20021;-76
2023/05/03 11:13:03;;;;;;;;;;;14.60;99.90;;;;;;5094675;27;20014;-77
2023/05/03 11:15:29;;;;;;;;;;;14.80;99.90;;;;;;5085390;27;19974;-76
2023/05/03 11:17:55;;;;;;;;;;;15.60;99.90;;;;;;5100652;27;19985;-75
2023/05/03 11:20:21;;;;;;;;;;;16.50;99.90;;;;;;5081114;27;20579;-75
2023/05/03 11:22:47;;;;;;;;;;;16.50;99.90;;;;;;5094780;27;20012;-76
2023/05/03 11:25:13;;;;;;;;;;;15.90;99.90;;;;;;5101928;27;20010;-76
2023/05/03 11:27:42;;;;;;;;;;;15.20;99.90;;;;;;5098487;27;20056;-76
2023/05/03 11:30:09;;;;;;;;;;;15.20;99.20;;;;;;5099744;27;19924;-76
2023/05/03 11:32:35;;;;;;;;;;;15.50;99.90;;;;;;5106400;27;19931;-75
2023/05/03 11:35:04;;;;;;;;;;;15.70;99.90;;;;;;5097192;28;19924;-77
2023/05/03 11:37:33;;;;;;;;;;;15.60;99.90;;;;;;5075999;28;19927;-76
2023/05/03 11:39:59;;;;;;;;;;;15.80;99.90;;;;;;5112917;27;20612;-76
2023/05/03 11:42:25;;;;;;;;;;;15.20;99.90;;;;;;5110066;28;19957;-76
2023/05/03 11:44:51;;;;;;;;;;;14.30;99.90;;;;;;5113964;28;20521;-76
2023/05/03 11:47:17;;;;;;;;;;;14.20;99.90;;;;;;5087637;28;19928;-76
2023/05/03 11:49:52;;;;;;;;;;;15.20;99.90;;;;;;5097916;28;19924;-75
2023/05/03 11:52:25;;;;;;;;;;;15.20;99.90;;;;;;5095950;28;20778;-76
2023/05/03 11:54:50;;;;;;;;;;;15.50;99.90;;;;;;5113551;28;20003;-76
2023/05/03 11:57:16;;;;;;;;;;;15.00;99.90;;;;;;5108410;28;20018;-76
2023/05/03 11:59:43;;;;;;;;;;;14.90;99.90;;;;;;5099521;28;20312;-76
2023/05/03 12:02:12;;;;;;;;;;;14.10;99.40;;;;;;5114368;27;20677;-75
2023/05/03 12:04:42;;;;;;;;;;;14.90;99.90;;;;;;5111862;28;19976;-76
2023/05/03 12:07:08;;;;;;;;;;;15.60;99.90;;;;;;5107556;27;19928;-76
2023/05/03 12:09:34;;;;;;;;;;;16.20;99.90;;;;;;5116559;27;19956;-77
2023/05/03 12:12:01;;;;;;;;;;;15.20;99.90;;;;;;5114337;28;19928;-76
2023/05/03 12:14:27;;;;;;;;;;;14.30;99.90;;;;;;5102661;27;19927;-76
2023/05/03 12:16:53;;;;;;;;;;;15.20;99.90;;;;;;5067705;28;20715;-75
2023/05/03 12:19:29;;;;;;;;;;;14.60;99.90;;;;;;5115818;27;19967;-76
2023/05/03 12:21:55;;;;;;;;;;;13.30;99.90;;;;;;5117704;27;19984;-76
2023/05/03 12:24:22;;;;;;;;;;;13.70;99.90;;;;;;5115474;27;19931;-76
2023/05/03 12:26:47;;;;;;;;;;;13.80;99.90;;;;;;5096337;27;20289;-76
2023/05/03 12:29:14;;;;;;;;;;;13.60;99.90;;;;;;5105751;27;19953;-75
2023/05/03 12:31:40;;;;;;;;;;;14.20;99.90;;;;;;5113489;27;19932;-75
2023/05/03 12:34:06;;;;;;;;;;;14.60;99.90;;;;;;5114894;27;19935;-75
2023/05/03 12:36:32;;;;;;;;;;;14.30;99.90;;;;;;5114487;27;19927;-75
2023/05/03 12:39:01;;;;;;;;;;;14.00;99.90;;;;;;5111715;27;20031;-76
2023/05/03 12:41:29;;;;;;;;;;;14.30;99.90;;;;;;5118050;27;19928;-75
2023/05/03 12:43:56;;;;;;;;;;;14.10;99.70;;;;;;5112861;27;19928;-75
2023/05/03 12:46:22;;;;;;;;;;;15.30;99.90;;;;;;5109708;27;19927;-75
2023/05/03 12:48:48;;;;;;;;;;;14.90;99.90;;;;;;5097597;27;19938;-75
2023/05/03 12:51:14;;;;;;;;;;;15.10;98.60;;;;;;5119120;27;19949;-75
2023/05/03 12:53:40;;;;;;;;;;;15.90;99.90;;;;;;5117558;27;20399;-76
2023/05/03 12:56:06;;;;;;;;;;;15.20;97.80;;;;;;5114021;27;19928;-76
2023/05/03 12:58:31;;;;;;;;;;;15.50;99.80;;;;;;5098507;27;20228;-76
2023/05/03 13:00:57;;;;;;;;;;;15.30;99.90;;;;;;5122988;27;20427;-75
2023/05/03 13:03:22;;;;;;;;;;;15.90;99.90;;;;;;5096320;27;19927;-76
2023/05/03 13:05:48;;;;;;;;;;;15.50;98.50;;;;;;5116235;27;20426;-76
2023/05/03 13:08:15;;;;;;;;;;;15.40;98.90;;;;;;5119045;27;20291;-76
2023/05/03 13:10:41;;;;;;;;;;;15.40;98.80;;;;;;5121059;27;19938;-76
2023/05/03 13:13:06;;;;;;;;;;;15.50;97.70;;;;;;5115355;27;19927;-75
2023/05/03 13:15:36;;;;;;;;;;;15.40;99.90;;;;;;5116932;27;19923;-76
2023/05/03 13:18:03;;;;;;;;;;;16.00;99.90;;;;;;5099396;27;19939;-76
2023/05/03 13:20:30;;;;;;;;;;;15.70;99.90;;;;;;5098838;27;20048;-77
2023/05/03 13:22:56;;;;;;;;;;;15.90;99.90;;;;;;5094527;27;19978;-77
2023/05/03 13:25:21;;;;;;;;;;;16.40;99.10;;;;;;5099467;27;19923;-76
2023/05/03 13:27:49;;;;;;;;;;;16.40;99.60;;;;;;5113993;27;20544;-77
2023/05/03 13:30:15;;;;;;;;;;;15.80;98.80;;;;;;5095487;27;19928;-77
2023/05/03 13:32:40;;;;;;;;;;;16.30;98.30;;;;;;5115072;27;20645;-77
2023/05/03 13:35:08;;;;;;;;;;;14.90;94.90;;;;;;5116303;27;19979;-75
2023/05/03 13:37:34;;;;;;;;;;;14.60;96.90;;;;;;5117169;27;19927;-76
2023/05/03 13:40:00;;;;;;;;;;;15.00;97.60;;;;;;5097567;27;19935;-77
2023/05/03 13:42:25;;;;;;;;;;;15.60;97.70;;;;;;5094019;27;19923;-75
2023/05/03 13:44:51;;;;;;;;;;;15.80;98.30;;;;;;5112866;27;19932;-75
2023/05/03 13:47:17;;;;;;;;;;;15.30;99.00;;;;;;5116309;27;20454;-77
2023/05/03 13:49:42;;;;;;;;;;;16.20;98.80;;;;;;5100054;27;19931;-78
2023/05/03 13:52:08;;;;;;;;;;;15.80;99.90;;;;;;5115465;27;20564;-75
2023/05/03 13:54:34;;;;;;;;;;;16.20;99.90;;;;;;5118344;27;19923;-75
2023/05/03 13:57:00;;;;;;;;;;;16.30;99.10;;;;;;5096970;27;19934;-76
2023/05/03 13:59:25;;;;;;;;;;;16.60;99.90;;;;;;5119392;27;19928;-77
2023/05/03 14:01:51;;;;;;;;;;;15.80;98.80;;;;;;5114654;27;19924;-75
2023/05/03 14:04:16;;;;;;;;;;;15.20;95.80;;;;;;5110982;27;20022;-75
2023/05/03 14:06:42;;;;;;;;;;;15.40;99.60;;;;;;5113844;27;19931;-75
2023/05/03 14:09:08;;;;;;;;;;;15.50;98.20;;;;;;5115623;27;19980;-75
2023/05/03 14:11:36;;;;;;;;;;;15.20;99.20;;;;;;5097561;27;22362;-75
2023/05/03 14:14:02;;;;;;;;;;;15.40;97.10;;;;;;5117574;27;19927;-74
2023/05/03 14:16:28;;;;;;;;;;;15.90;99.30;;;;;;5114971;27;19931;-76
2023/05/03 14:18:54;;;;;;;;;;;15.90;99.40;;;;;;5111830;27;19927;-76
2023/05/03 14:21:20;;;;;;;;;;;15.60;96.80;;;;;;5117072;27;20018;-75